Time;durP1;ratioP1;P1;durP2;ratioP2;P2;SDS_P1;SDS_P2;PMS_P1;PMS_P2;Temp;Humidity;BMP_temperature;BMP_pressure;BME280_temperature;BME280_humidity;BME280_pressure;Samples;Min_cycle;Max_cycle;Signal;HPM_P1;HPM_P2
2022/08/21 00:00:13;;;;;;;;;;;;;;;17.62;100.00;98772.06;5074328;28;19924;-80
2022/08/21 00:02:45;;;;;;;;;;;;;;;17.77;100.00;98770.09;5074268;28;20390;-80
2022/08/21 00:05:12;;;;;;;;;;;;;;;17.87;100.00;98768.81;5106653;28;19931;-80
2022/08/21 00:07:39;;;;;;;;;;;;;;;17.70;100.00;98765.59;5073921;28;19931;-80
2022/08/21 00:10:08;;;;;;;;;;;;;;;17.65;100.00;98759.81;5072715;28;20375;-80
2022/08/21 00:12:35;;;;;;;;;;;;;;;17.31;100.00;98765.91;5072785;28;19974;-80
2022/08/21 00:15:04;;;;;;;;;;;;;;;17.44;100.00;98756.00;5072433;28;19929;-80
2022/08/21 00:17:31;;;;;;;;;;;;;;;17.39;100.00;98761.47;5056209;28;20394;-80
2022/08/21 00:19:58;;;;;;;;;;;;;;;17.30;100.00;98758.66;5073687;28;19944;-80
2022/08/21 00:22:25;;;;;;;;;;;;;;;17.41;100.00;98761.78;5072362;28;20474;-80
2022/08/21 00:24:52;;;;;;;;;;;;;;;17.32;100.00;98758.97;5071593;28;19928;-80
2022/08/21 00:27:20;;;;;;;;;;;;;;;17.55;100.00;98761.88;5073837;28;19932;-80
2022/08/21 00:29:47;;;;;;;;;;;;;;;17.46;100.00;98764.00;5072476;28;20027;-80
2022/08/21 00:32:19;;;;;;;;;;;;;;;17.59;100.00;98767.38;5073609;28;19951;-80
2022/08/21 00:34:46;;;;;;;;;;;;;;;17.60;100.00;98766.91;5073588;28;19925;-80
2022/08/21 00:37:14;;;;;;;;;;;;;;;17.61;100.00;98765.66;5073187;28;19924;-80
2022/08/21 00:39:41;;;;;;;;;;;;;;;17.65;100.00;98757.78;5073296;28;19967;-80
2022/08/21 00:42:10;;;;;;;;;;;;;;;17.52;100.00;98760.00;5072067;28;19925;-80
2022/08/21 00:44:37;;;;;;;;;;;;;;;17.49;100.00;98757.38;5055392;28;19989;-80
2022/08/21 00:47:05;;;;;;;;;;;;;;;17.64;100.00;98766.72;5072131;28;20019;-80
2022/08/21 00:49:32;;;;;;;;;;;;;;;17.75;100.00;98758.53;5055582;28;20166;-80
2022/08/21 00:51:59;;;;;;;;;;;;;;;17.88;100.00;98762.69;5071680;28;19924;-80
2022/08/21 00:54:28;;;;;;;;;;;;;;;17.62;100.00;98755.91;5073226;28;20019;-80
2022/08/21 00:57:07;;;;;;;;;;;;;;;17.84;100.00;98755.63;5072000;28;19931;-80
2022/08/21 00:59:36;;;;;;;;;;;;;;;17.79;100.00;98764.75;5072924;28;19947;-80
2022/08/21 01:02:04;;;;;;;;;;;;;;;17.86;100.00;98755.94;5071920;28;19994;-80
2022/08/21 01:04:33;;;;;;;;;;;;;;;17.94;100.00;98754.31;5073116;28;20409;-80
2022/08/21 01:07:00;;;;;;;;;;;;;;;17.81;100.00;98762.25;5073209;28;19924;-80
2022/08/21 01:09:27;;;;;;;;;;;;;;;17.69;100.00;98754.78;5088700;28;19932;-80
2022/08/21 01:11:54;;;;;;;;;;;;;;;17.70;100.00;98756.34;5071832;28;20298;-80
2022/08/21 01:14:22;;;;;;;;;;;;;;;17.64;100.00;98764.69;5072977;28;19924;-80
2022/08/21 01:16:51;;;;;;;;;;;;;;;17.89;100.00;98764.22;5055441;28;19931;-80
2022/08/21 01:19:19;;;;;;;;;;;;;;;17.96;100.00;98763.09;5071441;28;19931;-80
2022/08/21 01:21:47;;;;;;;;;;;;;;;17.92;100.00;98768.13;5072595;28;19931;-80
2022/08/21 01:24:14;;;;;;;;;;;;;;;17.86;100.00;98770.06;5071842;28;19928;-80
2022/08/21 01:26:42;;;;;;;;;;;;;;;17.71;100.00;98764.34;5071735;28;20019;-80
2022/08/21 01:29:28;;;;;;;;;;;;;;;17.64;100.00;98764.69;5055145;28;20376;-80
2022/08/21 01:31:55;;;;;;;;;;;;;;;17.55;100.00;98773.19;5072569;28;19925;-80
2022/08/21 01:34:22;;;;;;;;;;;;;;;17.66;100.00;98772.69;5071676;28;20023;-80
2022/08/21 01:36:49;;;;;;;;;;;;;;;17.80;100.00;98783.28;5076885;28;20368;-80
2022/08/21 01:39:16;;;;;;;;;;;;;;;17.19;100.00;98783.81;5094864;28;19925;-80
2022/08/21 01:41:44;;;;;;;;;;;;;;;17.46;100.00;98775.28;5079326;28;19931;-80
2022/08/21 01:44:11;;;;;;;;;;;;;;;17.48;100.00;98775.56;5079614;28;20257;-80
2022/08/21 01:46:38;;;;;;;;;;;;;;;17.55;100.00;98778.06;5078069;28;20406;-80
2022/08/21 01:49:05;;;;;;;;;;;;;;;17.72;100.00;98770.78;5079242;28;19947;-80
2022/08/21 01:51:33;;;;;;;;;;;;;;;17.59;100.00;98767.38;5079097;28;20003;-80
2022/08/21 01:54:00;;;;;;;;;;;;;;;17.59;100.00;98768.16;5079342;28;19925;-80
2022/08/21 01:56:27;;;;;;;;;;;;;;;17.74;100.00;98769.03;5094640;28;20386;-81
2022/08/21 01:58:54;;;;;;;;;;;;;;;17.85;100.00;98768.50;5079094;28;19929;-80
2022/08/21 02:01:21;;;;;;;;;;;;;;;17.85;100.00;98774.94;5079244;28;19924;-80
2022/08/21 02:03:48;;;;;;;;;;;;;;;17.83;100.00;98774.63;5078909;28;19925;-80
2022/08/21 02:06:17;;;;;;;;;;;;;;;17.72;100.00;98771.53;5079204;28;19924;-80
2022/08/21 02:08:45;;;;;;;;;;;;;;;17.89;100.00;98774.75;5078971;28;19975;-81
2022/08/21 02:11:13;;;;;;;;;;;;;;;17.81;100.00;98774.31;5079184;28;19925;-80
2022/08/21 02:13:40;;;;;;;;;;;;;;;17.80;100.00;98774.78;5077818;28;19986;-80
2022/08/21 02:16:07;;;;;;;;;;;;;;;17.82;100.00;98775.91;5079119;28;19969;-80
2022/08/21 02:18:35;;;;;;;;;;;;;;;17.85;100.00;98768.50;5077537;28;20375;-80
2022/08/21 02:21:03;;;;;;;;;;;;;;;17.67;100.00;98777.06;5079057;28;20013;-80
2022/08/21 02:23:30;;;;;;;;;;;;;;;17.84;100.00;98767.72;5079041;28;19924;-80
2022/08/21 02:25:57;;;;;;;;;;;;;;;17.75;100.00;98764.94;5094558;28;19989;-80
2022/08/21 02:28:25;;;;;;;;;;;;;;;18.04;100.00;98760.69;5111555;28;19928;-80
2022/08/21 02:30:52;;;;;;;;;;;;;;;18.12;100.00;98759.84;5078955;28;20384;-80
2022/08/21 02:33:19;;;;;;;;;;;;;;;17.99;100.00;98762.91;5078587;28;19979;-80
2022/08/21 02:35:47;;;;;;;;;;;;;;;17.91;100.00;98766.56;5078948;28;20018;-80
2022/08/21 02:38:17;;;;;;;;;;;;;;;18.05;100.00;98765.88;5094259;28;19936;-80
2022/08/21 02:40:45;;;;;;;;;;;;;;;17.94;100.00;98751.50;5078819;28;19924;-80
2022/08/21 02:43:13;;;;;;;;;;;;;;;17.67;100.00;98760.91;5078725;28;19925;-80
2022/08/21 02:45:41;;;;;;;;;;;;;;;17.87;100.00;98757.50;5077621;28;19924;-80
2022/08/21 02:48:09;;;;;;;;;;;;;;;17.88;100.00;98750.59;5075107;28;19925;-80
2022/08/21 02:50:38;;;;;;;;;;;;;;;17.94;100.00;98759.97;5091382;28;19924;-80
2022/08/21 02:53:07;;;;;;;;;;;;;;;17.99;100.00;98762.16;5075392;28;19925;-80
2022/08/21 02:55:35;;;;;;;;;;;;;;;17.99;100.00;98760.09;5057402;28;19929;-80
2022/08/21 02:58:03;;;;;;;;;;;;;;;17.77;100.00;98755.97;5108169;28;20220;-80
2022/08/21 03:00:31;;;;;;;;;;;;;;;17.82;100.00;98752.50;5074117;28;19924;-80
2022/08/21 03:02:59;;;;;;;;;;;;;;;17.91;100.00;98746.78;5074205;28;19924;-80
2022/08/21 03:05:27;;;;;;;;;;;;;;;17.65;100.00;98754.16;5075484;28;19924;-80
2022/08/21 03:07:54;;;;;;;;;;;;;;;17.77;100.00;98742.63;5074250;28;19974;-80
2022/08/21 03:10:22;;;;;;;;;;;;;;;17.89;100.00;98729.53;5075279;28;20319;-80
2022/08/21 03:12:49;;;;;;;;;;;;;;;17.89;100.00;98735.97;5057400;28;20062;-80
2022/08/21 03:15:17;;;;;;;;;;;;;;;17.87;100.00;98734.91;5073925;28;20598;-80
2022/08/21 03:17:45;;;;;;;;;;;;;;;17.65;100.00;98737.22;5074762;28;19929;-80
2022/08/21 03:20:14;;;;;;;;;;;;;;;17.64;100.00;98735.66;5073568;28;19925;-80
2022/08/21 03:22:42;;;;;;;;;;;;;;;17.75;100.00;98730.25;5073923;28;19932;-80
2022/08/21 03:25:10;;;;;;;;;;;;;;;17.72;100.00;98731.97;5073660;28;19925;-80
2022/08/21 03:27:37;;;;;;;;;;;;;;;17.70;100.00;98728.09;5073671;28;20014;-80
2022/08/21 03:30:05;;;;;;;;;;;;;;;17.64;100.00;98738.47;5057092;28;19928;-80
2022/08/21 03:32:33;;;;;;;;;;;;;;;17.19;100.00;98745.06;5073559;28;20022;-80
2022/08/21 03:35:00;;;;;;;;;;;;;;;17.38;100.00;98748.59;5073404;28;19931;-80
2022/08/21 03:37:27;;;;;;;;;;;;;;;16.98;100.00;98753.75;5074734;28;19956;-80
2022/08/21 03:39:55;;;;;;;;;;;;;;;16.95;100.00;98755.47;5074461;28;19935;-80
2022/08/21 03:42:23;;;;;;;;;;;;;;;16.83;100.00;98755.66;5073409;28;19924;-80
2022/08/21 03:44:50;;;;;;;;;;;;;;;16.80;100.00;98763.03;5074412;28;20320;-80
2022/08/21 03:47:17;;;;;;;;;;;;;;;16.66;100.00;98766.50;5073105;28;20062;-81
2022/08/21 03:49:45;;;;;;;;;;;;;;;16.82;100.00;98768.19;5074359;28;20349;-80
2022/08/21 03:52:12;;;;;;;;;;;;;;;17.02;100.00;98768.47;5073283;28;19963;-80
2022/08/21 03:54:42;;;;;;;;;;;;;;;17.20;100.00;98765.63;5073137;28;19924;-80
2022/08/21 03:57:09;;;;;;;;;;;;;;;17.25;100.00;98768.56;5072998;28;20021;-80
2022/08/21 03:59:36;;;;;;;;;;;;;;;17.45;100.00;98768.06;5073972;28;20272;-80
2022/08/21 04:02:05;;;;;;;;;;;;;;;17.38;100.00;98771.19;5106663;28;19924;-80
2022/08/21 04:04:33;;;;;;;;;;;;;;;17.30;100.00;98778.44;5089849;28;19940;-80
2022/08/21 04:07:01;;;;;;;;;;;;;;;17.32;100.00;98773.91;5072824;28;20371;-80
2022/08/21 04:09:28;;;;;;;;;;;;;;;17.34;100.00;98770.59;5074162;28;20402;-80
2022/08/21 04:11:56;;;;;;;;;;;;;;;17.46;100.00;98769.63;5074039;28;19929;-81
2022/08/21 04:14:23;;;;;;;;;;;;;;;17.26;100.00;98772.19;5056051;28;20372;-80
2022/08/21 04:16:50;;;;;;;;;;;;;;;17.34;100.00;98777.00;5056058;28;19928;-80
2022/08/21 04:19:17;;;;;;;;;;;;;;;17.26;100.00;98778.63;5056131;28;19931;-80
2022/08/21 04:21:44;;;;;;;;;;;;;;;17.33;100.00;98780.31;5106293;28;20066;-80
2022/08/21 04:24:12;;;;;;;;;;;;;;;17.29;100.00;98779.69;5073764;28;19931;-80
2022/08/21 04:26:39;;;;;;;;;;;;;;;17.03;100.00;98784.16;5073596;28;19924;-80
2022/08/21 04:29:06;;;;;;;;;;;;;;;17.18;100.00;98787.88;5072102;28;20300;-81
2022/08/21 04:31:34;;;;;;;;;;;;;;;17.27;100.00;98785.81;5073681;28;19925;-81
2022/08/21 04:34:01;;;;;;;;;;;;;;;17.20;100.00;98786.16;5073563;28;19979;-80
2022/08/21 04:36:28;;;;;;;;;;;;;;;17.07;100.00;98787.63;5073493;28;19982;-80
2022/08/21 04:38:55;;;;;;;;;;;;;;;17.23;100.00;98796.50;5073497;28;19935;-80
2022/08/21 04:41:22;;;;;;;;;;;;;;;17.38;100.00;98793.78;5073332;28;20083;-80
2022/08/21 04:43:49;;;;;;;;;;;;;;;17.45;100.00;98801.94;5071792;28;19924;-80
2022/08/21 04:46:16;;;;;;;;;;;;;;;17.35;100.00;98804.00;5072199;28;19929;-80
2022/08/21 04:48:44;;;;;;;;;;;;;;;17.35;100.00;98804.00;5072093;28;19951;-80
2022/08/21 04:51:11;;;;;;;;;;;;;;;17.34;100.00;98796.78;5072218;28;20345;-80
2022/08/21 04:53:38;;;;;;;;;;;;;;;17.18;100.00;98807.63;5072045;28;20390;-80
2022/08/21 04:56:09;;;;;;;;;;;;;;;17.30;100.00;98812.31;5073237;28;20294;-80
2022/08/21 04:58:38;;;;;;;;;;;;;;;17.34;100.00;98798.84;5071736;28;19930;-81
2022/08/21 05:01:07;;;;;;;;;;;;;;;17.40;100.00;98803.34;5072051;28;20414;-80
2022/08/21 05:03:35;;;;;;;;;;;;;;;17.11;100.00;98810.81;5072857;28;19963;-80
2022/08/21 05:06:06;;;;;;;;;;;;;;;16.97;100.00;98811.44;5073292;28;19925;-80
2022/08/21 05:08:33;;;;;;;;;;;;;;;16.59;100.00;98817.59;5073107;28;19924;-80
2022/08/21 05:11:03;;;;;;;;;;;;;;;16.73;100.00;98819.00;5071174;28;19935;-80
2022/08/21 05:13:31;;;;;;;;;;;;;;;16.62;100.00;98813.81;5072877;28;19925;-80
2022/08/21 05:15:58;;;;;;;;;;;;;;;16.55;100.00;98819.00;5069983;28;19932;-80
2022/08/21 05:18:25;;;;;;;;;;;;;;;16.44;100.00;98824.31;5071744;28;20019;-80
2022/08/21 05:20:52;;;;;;;;;;;;;;;16.64;100.00;98824.63;5072910;28;19924;-80
2022/08/21 05:23:19;;;;;;;;;;;;;;;16.74;100.00;98831.84;5072840;28;19924;-80
2022/08/21 05:25:47;;;;;;;;;;;;;;;16.65;100.00;98823.38;5073093;28;19930;-80
2022/08/21 05:28:14;;;;;;;;;;;;;;;16.43;100.00;98831.19;5072550;28;19925;-80
2022/08/21 05:30:41;;;;;;;;;;;;;;;16.34;100.00;98833.97;5072902;28;19931;-79
2022/08/21 05:33:09;;;;;;;;;;;;;;;16.22;100.00;98841.34;5055063;28;20502;-80
2022/08/21 05:35:38;;;;;;;;;;;;;;;16.50;100.00;98828.06;5071564;28;20368;-80
2022/08/21 05:38:05;;;;;;;;;;;;;;;16.19;100.00;98836.63;5071309;28;19933;-80
2022/08/21 05:40:33;;;;;;;;;;;;;;;16.11;100.00;98841.75;5071398;28;20401;-80
2022/08/21 05:43:00;;;;;;;;;;;;;;;16.46;100.00;98850.00;5071434;28;20311;-80
2022/08/21 05:45:32;;;;;;;;;;;;;;;16.27;100.00;98844.31;5071388;28;19924;-80
2022/08/21 05:48:05;;;;;;;;;;;;;;;16.59;100.00;98856.28;5072541;28;20007;-80
2022/08/21 05:50:32;;;;;;;;;;;;;;;16.57;100.00;98855.97;5072663;28;19925;-80
2022/08/21 05:52:59;;;;;;;;;;;;;;;16.74;100.00;98857.22;5072651;28;20402;-80
2022/08/21 05:55:26;;;;;;;;;;;;;;;16.81;100.00;98862.56;5105044;28;19928;-80
2022/08/21 05:57:54;;;;;;;;;;;;;;;16.79;100.00;98865.88;5071122;28;20018;-80
2022/08/21 06:00:22;;;;;;;;;;;;;;;16.61;100.00;98865.06;5071458;28;19986;-80
2022/08/21 06:02:50;;;;;;;;;;;;;;;16.78;100.00;98866.34;5072640;28;19931;-80
2022/08/21 06:05:17;;;;;;;;;;;;;;;16.52;100.00;98862.22;5072508;28;19924;-80
2022/08/21 06:07:44;;;;;;;;;;;;;;;16.87;100.00;98860.69;5071190;28;20038;-80
2022/08/21 06:10:11;;;;;;;;;;;;;;;16.82;100.00;98870.56;5072392;28;19925;-80
2022/08/21 06:12:38;;;;;;;;;;;;;;;17.06;100.00;98867.88;5071324;28;20307;-80
2022/08/21 06:15:06;;;;;;;;;;;;;;;16.98;100.00;98875.13;5072416;28;19963;-80
2022/08/21 06:17:33;;;;;;;;;;;;;;;16.79;100.00;98876.34;5087670;28;19932;-80
2022/08/21 06:20:00;;;;;;;;;;;;;;;16.93;100.00;98878.56;5072280;28;19924;-80
2022/08/21 06:22:28;;;;;;;;;;;;;;;17.01;100.00;98862.88;5072995;28;19931;-80
2022/08/21 06:24:56;;;;;;;;;;;;;;;16.98;100.00;98861.78;5075962;28;20540;-80
2022/08/21 06:27:24;;;;;;;;;;;;;;;17.11;100.00;98867.25;5075895;28;19928;-80
2022/08/21 06:29:52;;;;;;;;;;;;;;;17.49;100.00;98870.38;5058723;28;19947;-80
2022/08/21 06:32:19;;;;;;;;;;;;;;;17.65;100.00;98875.63;5076105;28;19924;-80
2022/08/21 06:34:46;;;;;;;;;;;;;;;17.18;100.00;98866.94;5108434;28;20302;-80
2022/08/21 06:37:14;;;;;;;;;;;;;;;17.43;100.00;98878.66;5075852;28;19924;-80
2022/08/21 06:39:41;;;;;;;;;;;;;;;17.45;100.00;98881.03;5075282;28;19925;-80
2022/08/21 06:42:17;;;;;;;;;;;;;;;17.17;100.00;98887.94;5091271;28;19924;-80
2022/08/21 06:44:45;;;;;;;;;;;;;;;16.96;100.00;98875.59;5074569;28;19931;-80
2022/08/21 06:47:12;;;;;;;;;;;;;;;17.05;100.00;98863.50;5075500;28;19925;-80
2022/08/21 06:49:39;;;;;;;;;;;;;;;17.09;100.00;98861.28;5075726;28;19932;-80
2022/08/21 06:52:10;;;;;;;;;;;;;;;16.96;100.00;98860.69;5075492;28;20299;-80
2022/08/21 06:54:38;;;;;;;;;;;;;;;17.23;100.00;98863.47;5074112;28;19925;-80
2022/08/21 06:57:05;;;;;;;;;;;;;;;17.48;100.00;98868.78;5075401;28;19931;-80
2022/08/21 06:59:33;;;;;;;;;;;;;;;17.54;100.00;98869.69;5074352;28;19924;-80
2022/08/21 07:02:00;;;;;;;;;;;;;;;17.68;100.00;98867.00;5075269;28;19925;-80
2022/08/21 07:04:27;;;;;;;;;;;;;;;17.97;100.00;98869.25;5075502;28;20319;-80
2022/08/21 07:06:54;;;;;;;;;;;;;;;17.80;100.00;98870.88;5075167;28;19932;-80
2022/08/21 07:09:21;;;;;;;;;;;;;;;17.66;100.00;98869.50;5107768;28;19925;-80
2022/08/21 07:11:52;;;;;;;;;;;;;;;17.35;100.00;98870.97;5073767;28;19925;-80
2022/08/21 07:14:19;;;;;;;;;;;;;;;17.33;100.00;98868.63;5075204;28;20308;-80
2022/08/21 07:16:47;;;;;;;;;;;;;;;17.31;100.00;98870.38;5073830;28;20303;-80
2022/08/21 07:19:15;;;;;;;;;;;;;;;17.15;100.00;98870.69;5075487;28;19924;-80
2022/08/21 07:21:42;;;;;;;;;;;;;;;17.16;100.00;98880.75;5074954;28;19939;-80
2022/08/21 07:24:09;;;;;;;;;;;;;;;17.05;100.00;98878.41;5073456;28;19947;-80
2022/08/21 07:26:36;;;;;;;;;;;;;;;17.26;100.00;98879.47;5074882;28;19925;-80
2022/08/21 07:29:04;;;;;;;;;;;;;;;17.47;100.00;98879.31;5075212;28;20030;-80
2022/08/21 07:31:32;;;;;;;;;;;;;;;17.38;100.00;98879.31;5074857;28;19931;-80
2022/08/21 07:33:59;;;;;;;;;;;;;;;17.48;100.00;98874.44;5073173;28;19963;-80
2022/08/21 07:36:26;;;;;;;;;;;;;;;17.20;100.00;98878.53;5074750;28;20205;-80
2022/08/21 07:38:53;;;;;;;;;;;;;;;17.12;100.00;98888.56;5074468;28;20319;-80
2022/08/21 07:41:24;;;;;;;;;;;;;;;16.93;100.00;98890.66;5074048;28;20166;-80
2022/08/21 07:43:51;;;;;;;;;;;;;;;17.00;100.00;98900.81;5074359;28;20022;-80
2022/08/21 07:46:19;;;;;;;;;;;;;;;16.87;100.00;98894.56;5074672;28;19946;-80
2022/08/21 07:48:46;;;;;;;;;;;;;;;16.79;100.00;98901.75;5090236;28;20409;-80
2022/08/21 07:51:15;;;;;;;;;;;;;;;17.17;100.00;98902.06;5090042;28;19930;-80
2022/08/21 07:53:48;;;;;;;;;;;;;;;17.14;100.00;98895.34;5106553;28;19925;-80
2022/08/21 07:56:15;;;;;;;;;;;;;;;17.40;100.00;98887.31;5073015;28;20272;-80
2022/08/21 07:58:42;;;;;;;;;;;;;;;17.23;100.00;98892.50;5106662;28;19925;-80
2022/08/21 08:01:09;;;;;;;;;;;;;;;17.72;100.00;98895.09;5089951;28;19924;-80
2022/08/21 08:03:38;;;;;;;;;;;;;;;17.75;100.00;98889.25;5072935;28;19932;-80
2022/08/21 08:06:06;;;;;;;;;;;;;;;18.08;100.00;98889.31;5072815;28;20011;-80
2022/08/21 08:08:33;;;;;;;;;;;;;;;18.70;100.00;98900.75;5073045;28;19932;-80
2022/08/21 08:11:01;;;;;;;;;;;;;;;18.86;100.00;98892.63;5074011;28;20028;-80
2022/08/21 08:13:28;;;;;;;;;;;;;;;19.52;100.00;98902.44;5072633;28;19932;-80
2022/08/21 08:15:55;;;;;;;;;;;;;;;18.59;100.00;98897.69;5073990;28;19935;-80
2022/08/21 08:18:23;;;;;;;;;;;;;;;18.36;100.00;98893.53;5073780;28;20411;-80
2022/08/21 08:20:50;;;;;;;;;;;;;;;17.82;100.00;98888.94;5073719;28;20078;-80
2022/08/21 08:23:17;;;;;;;;;;;;;;;18.18;100.00;98907.78;5073845;28;19935;-80
2022/08/21 08:25:44;;;;;;;;;;;;;;;17.99;100.00;98904.25;5073710;28;19955;-80
2022/08/21 08:28:12;;;;;;;;;;;;;;;17.99;100.00;98903.47;5072604;28;19963;-80
2022/08/21 08:30:40;;;;;;;;;;;;;;;17.85;100.00;98892.84;5072515;28;20478;-80
2022/08/21 08:33:07;;;;;;;;;;;;;;;17.75;100.00;98894.91;5072155;28;20073;-80
2022/08/21 08:35:36;;;;;;;;;;;;;;;17.70;100.00;98892.75;5073435;28;19964;-80
2022/08/21 08:38:03;;;;;;;;;;;;;;;18.06;100.00;98891.03;5072283;28;19971;-80
2022/08/21 08:40:44;;;;;;;;;;;;;;;17.84;100.00;98885.63;5073360;28;20291;-80
2022/08/21 08:43:12;;;;;;;;;;;;;;;17.83;100.00;98884.06;5105923;28;20298;-80
2022/08/21 08:45:41;;;;;;;;;;;;;;;17.54;100.00;98886.66;5071162;28;20339;-80
2022/08/21 08:48:12;;;;;;;;;;;;;;;17.50;100.00;98903.00;5073298;28;19929;-80
2022/08/21 08:50:46;;;;;;;;;;;;;;;17.35;100.00;98897.19;5088779;28;19989;-80
2022/08/21 08:53:31;;;;;;;;;;;;;;;17.44;100.00;98907.72;5073245;28;20360;-80
2022/08/21 08:56:00;;;;;;;;;;;;;;;18.15;100.00;98905.13;5073099;28;20474;-80
2022/08/21 08:58:39;;;;;;;;;;;;;;;18.36;100.00;98906.94;5072893;28;19951;-80
2022/08/21 09:01:12;;;;;;;;;;;;;;;18.24;100.00;98903.03;5072987;28;19968;-80
2022/08/21 09:03:40;;;;;;;;;;;;;;;18.30;100.00;98905.97;5071627;28;19931;-80
2022/08/21 09:06:20;;;;;;;;;;;;;;;17.94;100.00;98915.44;5071453;28;19928;-80
2022/08/21 09:08:58;;;;;;;;;;;;;;;17.88;100.00;98920.94;5055075;28;20371;-80
2022/08/21 09:11:33;;;;;;;;;;;;;;;18.05;100.00;98929.84;5071916;28;19990;-80
2022/08/21 09:14:00;;;;;;;;;;;;;;;18.15;100.00;98927.75;5072994;28;19924;-80
2022/08/21 09:16:35;;;;;;;;;;;;;;;18.03;100.00;98923.88;5072710;28;20303;-80
2022/08/21 09:19:02;;;;;;;;;;;;;;;18.64;100.00;98914.78;5072441;28;19931;-80
2022/08/21 09:21:40;;;;;;;;;;;;;;;18.02;100.00;98921.53;5072984;28;20023;-80
2022/08/21 09:24:14;;;;;;;;;;;;;;;18.68;100.00;98918.22;5072977;28;20032;-80
2022/08/21 09:26:48;;;;;;;;;;;;;;;19.05;100.00;98921.56;5071421;28;19959;-80
2022/08/21 09:29:16;;;;;;;;;;;;;;;19.32;100.00;98921.38;5072327;28;19974;-80
2022/08/21 09:31:43;;;;;;;;;;;;;;;19.22;100.00;98920.63;5072653;28;19932;-80
2022/08/21 09:34:11;;;;;;;;;;;;;;;19.41;100.00;98922.06;5072601;28;19956;-80
2022/08/21 09:36:44;;;;;;;;;;;;;;;19.45;100.00;98911.31;5072627;28;19924;-80
2022/08/21 09:39:13;;;;;;;;;;;;;;;19.70;100.00;98912.81;5073104;28;19924;-80
2022/08/21 09:41:40;;;;;;;;;;;;;;;19.17;100.00;98907.16;5072478;28;19924;-80
2022/08/21 09:44:09;;;;;;;;;;;;;;;18.77;100.00;98900.38;5072715;28;20339;-80
2022/08/21 09:46:50;;;;;;;;;;;;;;;19.05;100.00;98902.50;5071288;28;19931;-80
2022/08/21 09:49:30;;;;;;;;;;;;;;;18.98;100.00;98905.72;5070875;28;19931;-80
2022/08/21 09:51:58;;;;;;;;;;;;;;;18.90;100.00;98915.84;5072334;28;20011;-80
2022/08/21 09:54:28;;;;;;;;;;;;;;;18.58;100.00;98928.03;5072247;28;20098;-80
2022/08/21 09:59:51;;;;;;;;;;;;;;;18.84;100.00;98923.44;5060236;28;19931;-80
2022/08/21 10:02:34;;;;;;;;;;;;;;;18.50;100.00;98924.00;5074530;28;19925;-80
2022/08/21 10:05:22;;;;;;;;;;;;;;;18.47;100.00;98919.28;5076389;28;19978;-80
2022/08/21 10:07:49;;;;;;;;;;;;;;;18.69;100.00;98930.34;5076194;28;19963;-80
2022/08/21 10:10:22;;;;;;;;;;;;;;;18.44;100.00;98928.75;5074946;28;20343;-80
2022/08/21 10:12:55;;;;;;;;;;;;;;;19.21;100.00;98938.91;5076396;28;19925;-82
2022/08/21 10:15:37;;;;;;;;;;;;;;;19.48;100.00;98926.56;5074934;28;19925;-80
2022/08/21 10:18:10;;;;;;;;;;;;;;;19.75;100.00;98919.84;5075807;28;20015;-80
2022/08/21 10:20:44;;;;;;;;;;;;;;;20.25;100.00;98916.56;5076450;28;20327;-81
2022/08/21 10:23:11;;;;;;;;;;;;;;;19.60;100.00;98923.44;5074420;28;19969;-81
2022/08/21 10:25:56;;;;;;;;;;;;;;;19.26;100.00;98914.78;5074604;28;20532;-81
2022/08/21 10:28:39;;;;;;;;;;;;;;;19.31;100.00;98923.41;5075790;28;19939;-81
2022/08/21 10:31:25;;;;;;;;;;;;;;;19.57;100.00;98927.25;5074290;28;20299;-81
2022/08/21 10:33:52;;;;;;;;;;;;;;;19.21;100.00;98929.59;5058204;28;20368;-81
2022/08/21 10:36:26;;;;;;;;;;;;;;;19.01;100.00;98932.28;5074586;28;19928;-80
2022/08/21 10:38:56;;;;;;;;;;;;;;;18.95;100.00;98940.66;5074079;28;20019;-81
2022/08/21 10:41:37;;;;;;;;;;;;;;;18.92;100.00;98935.19;5091021;28;20295;-81
2022/08/21 10:44:07;;;;;;;;;;;;;;;19.02;100.00;98934.63;5075479;28;19925;-81
2022/08/21 10:46:41;;;;;;;;;;;;;;;18.86;100.00;98935.06;5074116;28;20306;-81
2022/08/21 10:49:22;;;;;;;;;;;;;;;18.76;100.00;98932.78;5074346;28;20425;-81
2022/08/21 10:51:54;;;;;;;;;;;;;;;18.58;100.00;98939.34;5075377;28;20277;-81
2022/08/21 10:54:27;;;;;;;;;;;;;;;19.22;100.00;98931.97;5075212;28;20380;-80
2022/08/21 10:56:59;;;;;;;;;;;;;;;19.00;100.00;98937.19;5075073;28;20027;-80
2022/08/21 10:59:38;;;;;;;;;;;;;;;19.03;100.00;98935.41;5073856;28;19991;-81
2022/08/21 11:02:08;;;;;;;;;;;;;;;19.07;100.00;98928.31;5073608;28;20283;-81
2022/08/21 11:04:45;;;;;;;;;;;;;;;19.25;100.00;98927.38;5107858;28;19925;-81
2022/08/21 11:07:26;;;;;;;;;;;;;;;18.85;100.00;98925.03;5073825;28;19967;-81
2022/08/21 11:09:55;;;;;;;;;;;;;;;19.27;100.00;98928.50;5073440;28;19931;-81
2022/08/21 11:12:28;;;;;;;;;;;;;;;19.08;100.00;98921.41;5074158;28;19932;-81
2022/08/21 11:14:55;;;;;;;;;;;;;;;19.27;100.00;98922.03;5073654;28;20438;-80
2022/08/21 11:17:27;;;;;;;;;;;;;;;19.34;100.00;98928.09;5073986;28;19985;-81
2022/08/21 11:19:59;;;;;;;;;;;;;;;19.32;100.00;98925.00;5075272;28;20400;-81
2022/08/21 11:22:30;;;;;;;;;;;;;;;19.21;100.00;98921.91;5075014;28;19931;-81
2022/08/21 11:25:01;;;;;;;;;;;;;;;19.24;100.00;98929.44;5073588;28;20009;-81
2022/08/21 11:27:36;;;;;;;;;;;;;;;19.27;100.00;98922.03;5075340;28;19970;-81
2022/08/21 11:30:05;;;;;;;;;;;;;;;19.13;100.00;98920.69;5074433;28;20362;-81
2022/08/21 11:32:47;;;;;;;;;;;;;;;19.15;100.00;98918.19;5073440;28;20291;-80
2022/08/21 11:35:27;;;;;;;;;;;;;;;19.36;100.00;98925.56;5090504;28;19929;-81
2022/08/21 11:37:57;;;;;;;;;;;;;;;19.28;100.00;98924.38;5090344;28;20265;-81
2022/08/21 11:40:40;;;;;;;;;;;;;;;19.80;100.00;98913.47;5073586;28;19935;-81
2022/08/21 11:43:20;;;;;;;;;;;;;;;19.45;100.00;98917.00;5090103;28;20303;-81
2022/08/21 11:45:52;;;;;;;;;;;;;;;19.67;100.00;98928.72;5090254;28;20023;-81
2022/08/21 11:48:38;;;;;;;;;;;;;;;19.45;100.00;98930.38;5073392;28;19929;-81
2022/08/21 11:51:10;;;;;;;;;;;;;;;19.94;100.00;98933.31;5073474;28;20284;-81
2022/08/21 11:53:42;;;;;;;;;;;;;;;20.03;100.00;98929.59;5073432;28;19948;-81
2022/08/21 11:56:10;;;;;;;;;;;;;;;19.81;100.00;98927.19;5074566;28;20023;-81
2022/08/21 11:58:41;;;;;;;;;;;;;;;19.37;100.00;98915.78;5073900;28;19978;-81
2022/08/21 12:01:18;;;;;;;;;;;;;;;19.52;100.00;98930.00;5073277;28;19932;-81
2022/08/21 12:03:54;;;;;;;;;;;;;;;20.02;100.00;98925.19;5074612;28;19928;-81
2022/08/21 12:06:32;;;;;;;;;;;;;;;19.81;100.00;98932.06;5073011;28;19951;-81
2022/08/21 12:09:03;;;;;;;;;;;;;;;19.96;100.00;98932.84;5074151;28;19924;-81
2022/08/21 12:11:30;;;;;;;;;;;;;;;20.32;100.00;98929.59;5072847;28;20014;-81
2022/08/21 12:14:04;;;;;;;;;;;;;;;20.21;100.00;98929.41;5072414;28;19928;-81
2022/08/21 12:16:33;;;;;;;;;;;;;;;20.44;100.00;98925.63;5072904;28;20332;-81
2022/08/21 12:19:21;;;;;;;;;;;;;;;20.73;100.00;98923.50;5072809;28;19990;-81
2022/08/21 12:21:57;;;;;;;;;;;;;;;21.29;100.00;98925.00;5055975;28;19924;-81
2022/08/21 12:24:27;;;;;;;;;;;;;;;20.68;100.00;98927.03;5073937;28;20403;-81
2022/08/21 12:26:56;;;;;;;;;;;;;;;20.60;100.00;98936.47;5055839;28;19925;-81
2022/08/21 12:29:24;;;;;;;;;;;;;;;20.80;100.00;98922.28;5071997;28;19931;-81
2022/08/21 12:31:59;;;;;;;;;;;;;;;20.59;100.00;98923.53;5072362;28;19924;-81
2022/08/21 12:34:33;;;;;;;;;;;;;;;21.31;100.00;98922.44;5072316;28;19925;-81
2022/08/21 12:37:05;;;;;;;;;;;;;;;21.93;100.00;98914.03;5073487;28;19974;-81
2022/08/21 12:39:36;;;;;;;;;;;;;;;22.03;100.00;98926.81;5073505;28;19925;-81
2022/08/21 12:42:13;;;;;;;;;;;;;;;22.06;100.00;98919.31;5105763;28;19924;-81
2022/08/21 12:44:43;;;;;;;;;;;;;;;21.57;100.00;98934.59;5072234;28;19990;-81
2022/08/21 12:47:24;;;;;;;;;;;;;;;21.37;100.00;98931.81;5055650;28;19924;-81
2022/08/21 12:50:15;;;;;;;;;;;;;;;21.58;100.00;98930.50;5073315;28;19998;-81